Météo Nord-Pas-de-Calais   La météo au plus près de chez vous

Station météorologique

Observations météo à Embrun (05046)

05046001 873 m Dernier relevé à 07:00
15.6°C
Humidité 60 % Vent 12.6 km/h

Journée consultée

Jeudi 3 Septembre 2026

Synthèse de la journée

Périodes de référence en UTC

Température maximale

28.9°C

à 15:12

06h 06h

Température minimale

15.2°C

à 06:12

18h 18h

Rafale maximale

31 km/h

à 07:00

00h 00h

Précipitations

0 mm

Cumul quotidien

06h 06h

Ensoleillement

0h 0 mins

Durée quotidienne

00h 00h

Graphiques de la journée

Heure locale Réduire

Données détaillées

Relevés météo

Pas de 6 minutes Afficher les relevés infra-horaires
Relevés météo détaillés à Embrun pour le Jeudi 3 Septembre 2026
Heure Température °C Point de rosée °C Humidité % Vent moyen (raf.), km/h Précipitations mm Température à 10 cm °C Température à 20 cm °C Température à 50 cm °C Température à 100 cm °C Hauteur neige cm Ensoleillement min Rayonnement global W/m²
07:00 15.6 °C 7.4 °C 58 % 15 km/h (31 km/h) 0 mm0 mm 19.4 °C 20.3 °C 19.9 °C 19.4 °C 0 cm 0 min 0 W/m²
06:54 15.6 °C 7.4 °C 58 % 15 km/h (25 km/h) 0 mm0 mm 19.4 °C 20.4 °C 19.9 °C 19.4 °C 0 cm 0 min 0 W/m²
06:48 15.4 °C 7.4 °C 59 % 13 km/h (23 km/h) 0 mm0 mm 19.4 °C 20.4 °C 19.9 °C 19.4 °C 0 cm 0 min 0 W/m²
06:42 15.6 °C 7.6 °C 59 % 13 km/h (23 km/h) 0 mm0 mm 19.4 °C 20.4 °C 19.9 °C 19.4 °C 0 cm 0 min 0 W/m²
06:36 15.5 °C 7.5 °C 59 % 9 km/h (16 km/h) 0 mm0 mm 19.5 °C 20.4 °C 19.9 °C 19.4 °C 0 cm 0 min 0 W/m²
06:30 15.3 °C 7.6 °C 60 % 8 km/h (15 km/h) 0 mm0 mm 19.5 °C 20.4 °C 19.9 °C 19.4 °C 0 cm 0 min 0 W/m²
06:24 15.4 °C 7.7 °C 60 % 10 km/h (20 km/h) 0 mm0 mm 19.5 °C 20.4 °C 19.9 °C 19.4 °C 0 cm 0 min 0 W/m²
06:18 15.2 °C 7.7 °C 61 % 11 km/h (20 km/h) 0 mm0 mm 19.5 °C 20.5 °C 19.9 °C 19.4 °C 0 cm 0 min 0 W/m²
06:12 15.2 °C 8 °C 62 % 10 km/h (16 km/h) 0 mm0 mm 19.6 °C 20.5 °C 19.9 °C 19.4 °C 0 cm 0 min 0 W/m²
06:06 15.5 °C 8 °C 61 % 10 km/h (18 km/h) 0 mm0 mm 19.6 °C 20.5 °C 19.9 °C 19.4 °C 0 cm 0 min 0 W/m²
06:00 15.7 °C 8 °C 60 % 13 km/h (22 km/h) 0 mm0 mm 19.6 °C 20.5 °C 19.9 °C 19.4 °C 0 cm 0 min 0 W/m²
05:54 16.1 °C 8.1 °C 59 % 16 km/h (25 km/h) 0 mm0 mm 19.7 °C 20.5 °C 19.9 °C 19.4 °C 0 cm 0 min 0 W/m²
05:48 16.2 °C 8.2 °C 59 % 17 km/h (27 km/h) 0 mm0 mm 19.7 °C 20.5 °C 19.9 °C 19.4 °C 0 cm 0 min 0 W/m²
05:42 16.1 °C 8.1 °C 59 % 15 km/h (27 km/h) 0 mm0 mm 19.7 °C 20.6 °C 19.9 °C 19.4 °C 0 cm 0 min 0 W/m²
05:36 16.1 °C 8.3 °C 60 % 15 km/h (24 km/h) 0 mm0 mm 19.8 °C 20.6 °C 19.9 °C 19.4 °C 0 cm 0 min 0 W/m²
05:30 16.2 °C 8.4 °C 60 % 18 km/h (25 km/h) 0 mm0 mm 19.8 °C 20.6 °C 19.9 °C 19.4 °C 0 cm 0 min 0 W/m²
05:24 16.3 °C 8.5 °C 60 % 16 km/h (25 km/h) 0 mm0 mm 19.8 °C 20.6 °C 19.9 °C 19.4 °C 0 cm 0 min 0 W/m²
05:18 16.2 °C 8.4 °C 60 % 13 km/h (22 km/h) 0 mm0 mm 19.8 °C 20.6 °C 19.9 °C 19.4 °C 0 cm 0 min 0 W/m²
05:12 16.4 °C 8.6 °C 60 % 16 km/h (25 km/h) 0 mm0 mm 19.8 °C 20.6 °C 19.9 °C 19.4 °C 0 cm 0 min 0 W/m²
05:06 16.4 °C 8.6 °C 60 % 17 km/h (25 km/h) 0 mm0 mm 19.9 °C 20.6 °C 19.9 °C 19.4 °C 0 cm 0 min 0 W/m²
05:00 16.2 °C 8.7 °C 61 % 15 km/h (24 km/h) 0 mm0 mm 19.9 °C 20.7 °C 19.9 °C 19.4 °C 0 cm 0 min 0 W/m²
04:54 16.1 °C 9 °C 63 % 11 km/h (23 km/h) 0 mm0 mm 19.9 °C 20.7 °C 19.9 °C 19.4 °C 0 cm 0 min 0 W/m²
04:48 16.3 °C 8.8 °C 61 % 12 km/h (20 km/h) 0 mm0 mm 20 °C 20.7 °C 19.9 °C 19.4 °C 0 cm 0 min 0 W/m²
04:42 16.5 °C 8.7 °C 60 % 12 km/h (20 km/h) 0 mm0 mm 20 °C 20.7 °C 19.9 °C 19.4 °C 0 cm 0 min 0 W/m²
04:36 16.6 °C 8.8 °C 60 % 11 km/h (18 km/h) 0 mm0 mm 20 °C 20.7 °C 19.9 °C 19.4 °C 0 cm 0 min 0 W/m²
04:30 16.5 °C 8.7 °C 60 % 12 km/h (18 km/h) 0 mm0 mm 20.1 °C 20.7 °C 19.9 °C 19.4 °C 0 cm 0 min 0 W/m²
04:24 16.5 °C 8.9 °C 61 % 12 km/h (19 km/h) 0 mm0 mm 20.1 °C 20.7 °C 19.9 °C 19.4 °C 0 cm 0 min 0 W/m²
04:18 16.2 °C 8.9 °C 62 % 12 km/h (19 km/h) 0 mm0 mm 20.1 °C 20.8 °C 19.9 °C 19.4 °C 0 cm 0 min 0 W/m²
04:12 16.4 °C 9.1 °C 62 % 10 km/h (17 km/h) 0 mm0 mm 20.2 °C 20.8 °C 19.9 °C 19.4 °C 0 cm 0 min 0 W/m²
04:06 16.4 °C 9.1 °C 62 % 9 km/h (14 km/h) 0 mm0 mm 20.2 °C 20.8 °C 19.9 °C 19.4 °C 0 cm 0 min 0 W/m²
04:00 16.3 °C 9.2 °C 63 % 9 km/h (19 km/h) 0 mm0 mm 20.2 °C 20.8 °C 19.9 °C 19.4 °C 0 cm 0 min 0 W/m²
03:54 16.2 °C 9.1 °C 63 % 10 km/h (19 km/h) 0 mm0 mm 20.3 °C 20.8 °C 19.9 °C 19.4 °C 0 cm 0 min 0 W/m²
03:48 16.1 °C 9.3 °C 64 % 10 km/h (16 km/h) 0 mm0 mm 20.3 °C 20.8 °C 19.9 °C 19.4 °C 0 cm 0 min 0 W/m²
03:42 16.5 °C 9.2 °C 62 % 11 km/h (21 km/h) 0 mm0 mm 20.3 °C 20.8 °C 19.9 °C 19.4 °C 0 cm 0 min 0 W/m²
03:36 17 °C 9.2 °C 60 % 13 km/h (22 km/h) 0 mm0 mm 20.3 °C 20.9 °C 19.9 °C 19.4 °C 0 cm 0 min 0 W/m²
03:30 17.2 °C 9.4 °C 60 % 13 km/h (22 km/h) 0 mm0 mm 20.4 °C 20.9 °C 19.9 °C 19.4 °C 0 cm 0 min 0 W/m²
03:24 17.1 °C 9.3 °C 60 % 13 km/h (20 km/h) 0 mm0 mm 20.4 °C 20.9 °C 19.9 °C 19.4 °C 0 cm 0 min 0 W/m²
03:18 17 °C 9.4 °C 61 % 13 km/h (23 km/h) 0 mm0 mm 20.4 °C 20.9 °C 19.9 °C 19.4 °C 0 cm 0 min 0 W/m²
03:12 16.6 °C 9.5 °C 63 % 11 km/h (23 km/h) 0 mm0 mm 20.5 °C 20.9 °C 19.9 °C 19.4 °C 0 cm 0 min 0 W/m²
03:06 15.6 °C 9.7 °C 68 % 9 km/h (13 km/h) 0 mm0 mm 20.5 °C 20.9 °C 19.9 °C 19.4 °C 0 cm 0 min 0 W/m²
03:00 15.8 °C 9.7 °C 67 % 9 km/h (13 km/h) 0 mm0 mm 20.5 °C 20.9 °C 19.8 °C 19.4 °C 0 cm 0 min 0 W/m²
02:54 16.4 °C 9.8 °C 65 % 10 km/h (17 km/h) 0 mm0 mm 20.6 °C 20.9 °C 19.9 °C 19.4 °C 0 cm 0 min 0 W/m²
02:48 17.1 °C 9.8 °C 62 % 12 km/h (18 km/h) 0 mm0 mm 20.6 °C 21 °C 19.9 °C 19.4 °C 0 cm 0 min 0 W/m²
02:42 17.4 °C 9.6 °C 60 % 14 km/h (21 km/h) 0 mm0 mm 20.6 °C 21 °C 19.9 °C 19.4 °C 0 cm 0 min 0 W/m²
02:36 17.4 °C 9.8 °C 61 % 15 km/h (21 km/h) 0 mm0 mm 20.6 °C 21 °C 19.8 °C 19.4 °C 0 cm 0 min 0 W/m²
02:30 17.4 °C 9.8 °C 61 % 14 km/h (20 km/h) 0 mm0 mm 20.7 °C 21 °C 19.8 °C 19.4 °C 0 cm 0 min 0 W/m²
02:24 16.5 °C 10.1 °C 66 % 11 km/h (16 km/h) 0 mm0 mm 20.7 °C 21 °C 19.8 °C 19.4 °C 0 cm 0 min 0 W/m²
02:18 15.8 °C 10.1 °C 69 % 9 km/h (15 km/h) 0 mm0 mm 20.7 °C 21 °C 19.8 °C 19.4 °C 0 cm 0 min 0 W/m²
02:12 15.8 °C 10.3 °C 70 % 8 km/h (12 km/h) 0 mm0 mm 20.8 °C 21.1 °C 19.8 °C 19.4 °C 0 cm 0 min 0 W/m²
02:06 15.7 °C 10 °C 69 % 8 km/h (12 km/h) 0 mm0 mm 20.8 °C 21.1 °C 19.8 °C 19.4 °C 0 cm 0 min 0 W/m²
02:00 16 °C 10.3 °C 69 % 8 km/h (12 km/h) 0 mm0 mm 20.8 °C 21.1 °C 19.8 °C 19.4 °C 0 cm 0 min 0 W/m²
01:54 16.2 °C 10.1 °C 67 % 8 km/h (13 km/h) 0 mm0 mm 20.9 °C 21.1 °C 19.8 °C 19.4 °C 0 cm 0 min 0 W/m²
01:48 17 °C 10.4 °C 65 % 9 km/h (15 km/h) 0 mm0 mm 20.9 °C 21.1 °C 19.8 °C 19.4 °C 0 cm 0 min 0 W/m²
01:42 17.3 °C 9.9 °C 62 % 11 km/h (15 km/h) 0 mm0 mm 20.9 °C 21.1 °C 19.8 °C 19.4 °C 0 cm 0 min 0 W/m²
01:36 17.3 °C 10.2 °C 63 % 12 km/h (15 km/h) 0 mm0 mm 21 °C 21.1 °C 19.8 °C 19.4 °C 0 cm 0 min 0 W/m²
01:30 17.3 °C 10.2 °C 63 % 10 km/h (15 km/h) 0 mm0 mm 21 °C 21.1 °C 19.8 °C 19.4 °C 0 cm 0 min 0 W/m²
01:24 17.1 °C 10.2 °C 64 % 8 km/h (12 km/h) 0 mm0 mm 21 °C 21.1 °C 19.8 °C 19.4 °C 0 cm 0 min 0 W/m²
01:18 17 °C 10.4 °C 65 % 7 km/h (10 km/h) 0 mm0 mm 21.1 °C 21.1 °C 19.8 °C 19.4 °C 0 cm 0 min 0 W/m²
01:12 17 °C 10.4 °C 65 % 7 km/h (12 km/h) 0 mm0 mm 21.1 °C 21.2 °C 19.8 °C 19.4 °C 0 cm 0 min 0 W/m²
01:06 17 °C 10.4 °C 65 % 8 km/h (12 km/h) 0 mm0 mm 21.1 °C 21.2 °C 19.8 °C 19.4 °C 0 cm 0 min 0 W/m²
01:00 17.1 °C 10.5 °C 65 % 8 km/h (12 km/h) 0 mm0 mm 21.2 °C 21.2 °C 19.8 °C 19.4 °C 0 cm 0 min 0 W/m²
00:54 17 °C 10.6 °C 66 % 8 km/h (11 km/h) 0 mm0 mm 21.2 °C 21.2 °C 19.8 °C 19.4 °C 0 cm 0 min 0 W/m²
00:48 17 °C 10.6 °C 66 % 8 km/h (14 km/h) 0 mm0 mm 21.2 °C 21.2 °C 19.8 °C 19.4 °C 0 cm 0 min 0 W/m²
00:42 17.2 °C 10.6 °C 65 % 10 km/h (14 km/h) 0 mm0 mm 21.3 °C 21.2 °C 19.8 °C 19.5 °C 0 cm 0 min 0 W/m²
00:36 17.5 °C 10.6 °C 64 % 12 km/h (16 km/h) 0 mm0 mm 21.3 °C 21.2 °C 19.8 °C 19.4 °C 0 cm 0 min 0 W/m²
00:30 17.7 °C 10.3 °C 62 % 10 km/h (16 km/h) 0 mm0 mm 21.3 °C 21.2 °C 19.8 °C 19.4 °C 0 cm 0 min 0 W/m²
00:24 17.6 °C 10.5 °C 63 % 9 km/h (13 km/h) 0 mm0 mm 21.3 °C 21.2 °C 19.8 °C 19.5 °C 0 cm 0 min 0 W/m²
00:18 18 °C 10.4 °C 61 % 8 km/h (13 km/h) 0 mm0 mm 21.4 °C 21.2 °C 19.8 °C 19.4 °C 0 cm 0 min 0 W/m²
00:12 18.1 °C 10.5 °C 61 % 11 km/h (16 km/h) 0 mm0 mm 21.4 °C 21.2 °C 19.8 °C 19.5 °C 0 cm 0 min 0 W/m²
00:06 18.1 °C 10.5 °C 61 % 12 km/h (16 km/h) 0 mm0 mm 21.5 °C 21.2 °C 19.8 °C 19.4 °C 0 cm 0 min 0 W/m²
00:00 18.2 °C 10.3 °C 60 % 10 km/h (16 km/h) 0 mm0 mm 21.5 °C 21.2 °C 19.8 °C 19.5 °C 0 cm 0 min 0 W/m²

Données via Météo-France

Relevés météo à Embrun

Cette page rassemble les observations de la station de Embrun : température, humidité, vent, précipitations et pression atmosphérique. Les graphiques facilitent le suivi de la journée, tandis que le tableau donne accès aux mesures horaires et infra-horaires disponibles.

Pour replacer ces mesures dans leur contexte, consultez la climatologie de Embrun ainsi que ses normales et records. Retrouvez aussi la carte des observations météo en temps réel.